Big Sur, CA (93920)

11:00 PM PDT on August 25, 2016 (GMT -0700)
Partington Ridge | | Change Station

Elev 2087 ft 36.20 °N, 121.70 °W | Updated 5 minutes ago

Overcast
Overcast
51.6 °F
Feels Like 51.6 °F
N
0.0
Wind Variable Wind from South

Today
High -- | Low -- °F
--% Chance of Precip.
Yesterday
High -- | Low -- °F
Precip. -- in
Pressure 29.98 in
Visibility 10.0 miles
Clouds Overcast 600 ft
Dew Point 50 °F
Humidity 94%
Rainfall 0.00 in
Snow Depth Not available.
6:33 AM 7:43 PM
Last Quarter, 38% visible
METAR KMRY 260554Z AUTO 22005KT 10SM OVC006 14/13 A2994 RMK AO2 SLP151 T01440128 10167 20144 50003
Pressure 29.98 in
Visibility 10.0 miles
Clouds Overcast 600 ft
Dew Point 50 °F
Humidity 94%
Rainfall 0.00 in
Snow Depth Not available.
6:33 AM 7:43 PM
Last Quarter, 38% visible
METAR KMRY 260554Z AUTO 22005KT 10SM OVC006 14/13 A2994 RMK AO2 SLP151 T01440128 10167 20144 50003

10-Day Weather Forecast

Almanac

Astronomy

Aug. 25, 2016 Rise Set
Actual Time
Civil Twilight
Nautical Twilight
Astronomical Twilight
Moon
Length of Visible Light
Length of Day
Tomorrow will be .
, % of the Moon is Illuminated

Today's Extremes

State Highs State Lows

Community

WunderPhotos

Upload Photos

1,935,057 photos uploaded!

WunderBlog® & News

Nearby

Air Quality

  Air Quality AQ Index Pollutant
Not available.

Snow Depth

Station Depth Elevation

Earthquake Activity

City Distance Mag. Time & Date
Minimum magnitude displayed is 2.5.

Coastal Water Temperatures

Place Temperature

Stations

Nearby Weather Stations

Station Location Temp. Windchill Dew Point Humidity Wind Precip. Elev Updated Type
                   

Watches & Warnings

There are currently no watches in effect.